sensor_id;sensor_type;location;lat;lon;timestamp;pressure;altitude;pressure_sealevel;temperature;humidity
34931;BME280;21134;49.646;8.560;2023-10-09T00:02:05;101012.91;;;12.76;100.00
34931;BME280;21134;49.646;8.560;2023-10-09T00:04:33;101015.47;;;12.79;100.00
34931;BME280;21134;49.646;8.560;2023-10-09T00:07:02;101011.16;;;12.77;100.00
34931;BME280;21134;49.646;8.560;2023-10-09T00:09:33;101001.75;;;12.73;100.00
34931;BME280;21134;49.646;8.560;2023-10-09T00:12:12;101002.63;;;12.73;100.00
34931;BME280;21134;49.646;8.560;2023-10-09T00:14:42;101002.59;;;12.75;100.00
34931;BME280;21134;49.646;8.560;2023-10-09T00:17:14;101000.88;;;12.75;100.00
34931;BME280;21134;49.646;8.560;2023-10-09T00:19:43;100998.31;;;12.75;100.00
34931;BME280;21134;49.646;8.560;2023-10-09T00:22:13;101001.75;;;12.77;100.00
34931;BME280;21134;49.646;8.560;2023-10-09T00:24:52;100994.91;;;12.75;100.00
34931;BME280;21134;49.646;8.560;2023-10-09T00:27:36;100993.19;;;12.77;100.00
34931;BME280;21134;49.646;8.560;2023-10-09T00:30:09;100994.03;;;12.79;100.00
34931;BME280;21134;49.646;8.560;2023-10-09T00:32:40;100988.91;;;12.80;100.00
34931;BME280;21134;49.646;8.560;2023-10-09T00:35:10;100982.06;;;12.84;100.00
34931;BME280;21134;49.646;8.560;2023-10-09T00:37:51;100981.19;;;12.84;100.00
34931;BME280;21134;49.646;8.560;2023-10-09T00:40:20;100985.47;;;12.86;100.00
34931;BME280;21134;49.646;8.560;2023-10-09T00:42:53;100988.91;;;12.87;100.00
34931;BME280;21134;49.646;8.560;2023-10-09T00:45:22;100979.47;;;12.87;100.00
34931;BME280;21134;49.646;8.560;2023-10-09T00:47:57;100985.47;;;12.89;100.00
34931;BME280;21134;49.646;8.560;2023-10-09T00:50:24;100983.75;;;12.88;100.00
34931;BME280;21134;49.646;8.560;2023-10-09T00:52:54;100979.47;;;12.87;100.00
34931;BME280;21134;49.646;8.560;2023-10-09T00:55:27;100972.63;;;12.89;100.00
34931;BME280;21134;49.646;8.560;2023-10-09T00:58:04;100972.63;;;12.92;100.00
34931;BME280;21134;49.646;8.560;2023-10-09T01:00:39;100965.75;;;12.93;100.00
34931;BME280;21134;49.646;8.560;2023-10-09T01:03:13;100965.75;;;12.93;100.00
34931;BME280;21134;49.646;8.560;2023-10-09T01:05:46;100962.34;;;12.92;100.00
34931;BME280;21134;49.646;8.560;2023-10-09T01:08:18;100960.63;;;12.96;100.00
34931;BME280;21134;49.646;8.560;2023-10-09T01:10:54;100966.59;;;13.02;100.00
34931;BME280;21134;49.646;8.560;2023-10-09T01:13:23;100962.31;;;12.98;100.00
34931;BME280;21134;49.646;8.560;2023-10-09T01:16:06;100959.72;;;12.98;100.00
34931;BME280;21134;49.646;8.560;2023-10-09T01:18:37;100954.63;;;12.94;100.00
34931;BME280;21134;49.646;8.560;2023-10-09T01:21:08;100955.47;;;12.94;100.00
34931;BME280;21134;49.646;8.560;2023-10-09T01:23:39;100950.31;;;12.97;100.00
34931;BME280;21134;49.646;8.560;2023-10-09T01:26:24;100946.88;;;13.03;100.00
34931;BME280;21134;49.646;8.560;2023-10-09T01:28:50;100948.59;;;13.02;100.00
34931;BME280;21134;49.646;8.560;2023-10-09T01:31:23;100942.63;;;13.02;100.00
34931;BME280;21134;49.646;8.560;2023-10-09T01:33:51;100929.78;;;12.99;100.00
34931;BME280;21134;49.646;8.560;2023-10-09T01:36:18;100934.94;;;12.99;100.00
34931;BME280;21134;49.646;8.560;2023-10-09T01:38:59;100933.19;;;12.98;100.00
34931;BME280;21134;49.646;8.560;2023-10-09T01:41:25;100924.66;;;12.99;100.00
34931;BME280;21134;49.646;8.560;2023-10-09T01:43:51;100928.91;;;13.03;100.00
34931;BME280;21134;49.646;8.560;2023-10-09T01:46:25;100928.91;;;13.00;100.00
34931;BME280;21134;49.646;8.560;2023-10-09T01:48:52;100921.19;;;13.01;100.00
34931;BME280;21134;49.646;8.560;2023-10-09T01:51:20;100926.34;;;13.03;100.00
34931;BME280;21134;49.646;8.560;2023-10-09T01:53:46;100923.78;;;13.03;100.00
34931;BME280;21134;49.646;8.560;2023-10-09T01:56:21;100922.91;;;13.04;100.00
34931;BME280;21134;49.646;8.560;2023-10-09T01:58:47;100916.94;;;13.02;100.00
34931;BME280;21134;49.646;8.560;2023-10-09T02:01:15;100916.91;;;13.03;100.00
34931;BME280;21134;49.646;8.560;2023-10-09T02:03:42;100924.63;;;13.03;100.00
34931;BME280;21134;49.646;8.560;2023-10-09T02:06:09;100924.63;;;13.03;100.00
34931;BME280;21134;49.646;8.560;2023-10-09T02:08:55;100930.59;;;13.04;100.00
34931;BME280;21134;49.646;8.560;2023-10-09T02:11:22;100935.75;;;13.06;100.00
34931;BME280;21134;49.646;8.560;2023-10-09T02:14:04;100931.44;;;13.08;100.00
34931;BME280;21134;49.646;8.560;2023-10-09T02:16:44;100930.59;;;13.10;100.00
34931;BME280;21134;49.646;8.560;2023-10-09T02:19:27;100930.59;;;13.07;100.00
34931;BME280;21134;49.646;8.560;2023-10-09T02:21:56;100918.63;;;13.03;100.00
34931;BME280;21134;49.646;8.560;2023-10-09T02:24:24;100923.78;;;13.03;100.00
34931;BME280;21134;49.646;8.560;2023-10-09T02:27:09;100912.66;;;13.02;100.00
34931;BME280;21134;49.646;8.560;2023-10-09T02:29:36;100919.50;;;13.00;100.00
34931;BME280;21134;49.646;8.560;2023-10-09T02:32:04;100913.47;;;13.01;100.00
34931;BME280;21134;49.646;8.560;2023-10-09T02:34:39;100912.63;;;13.06;100.00
34931;BME280;21134;49.646;8.560;2023-10-09T02:37:05;100916.94;;;13.02;100.00
34931;BME280;21134;49.646;8.560;2023-10-09T02:39:36;100912.66;;;13.02;100.00
34931;BME280;21134;49.646;8.560;2023-10-09T02:42:10;100914.38;;;12.99;100.00
34931;BME280;21134;49.646;8.560;2023-10-09T02:44:48;100920.34;;;12.98;100.00
34931;BME280;21134;49.646;8.560;2023-10-09T02:47:16;100927.19;;;13.00;100.00
34931;BME280;21134;49.646;8.560;2023-10-09T02:49:46;100915.22;;;12.99;100.00
34931;BME280;21134;49.646;8.560;2023-10-09T02:52:14;100916.06;;;13.00;100.00
34931;BME280;21134;49.646;8.560;2023-10-09T02:54:44;100907.53;;;12.99;100.00
34931;BME280;21134;49.646;8.560;2023-10-09T02:57:14;100909.25;;;12.96;100.00
34931;BME280;21134;49.646;8.560;2023-10-09T02:59:48;100909.25;;;12.93;100.00
34931;BME280;21134;49.646;8.560;2023-10-09T03:02:17;100902.44;;;12.87;100.00
34931;BME280;21134;49.646;8.560;2023-10-09T03:04:43;100909.28;;;12.87;100.00
34931;BME280;21134;49.646;8.560;2023-10-09T03:07:10;100905.84;;;12.85;100.00
34931;BME280;21134;49.646;8.560;2023-10-09T03:09:39;100905.88;;;12.86;100.00
34931;BME280;21134;49.646;8.560;2023-10-09T03:12:06;100906.69;;;12.90;100.00
34931;BME280;21134;49.646;8.560;2023-10-09T03:14:37;100902.44;;;12.87;100.00
34931;BME280;21134;49.646;8.560;2023-10-09T03:17:05;100904.16;;;12.82;100.00
34931;BME280;21134;49.646;8.560;2023-10-09T03:19:32;100900.72;;;12.82;100.00
34931;BME280;21134;49.646;8.560;2023-10-09T03:22:03;100900.75;;;12.83;100.00
34931;BME280;21134;49.646;8.560;2023-10-09T03:24:29;100901.59;;;12.84;100.00
34931;BME280;21134;49.646;8.560;2023-10-09T03:26:57;100899.88;;;12.84;100.00
34931;BME280;21134;49.646;8.560;2023-10-09T03:29:24;100901.59;;;12.80;100.00
34931;BME280;21134;49.646;8.560;2023-10-09T03:31:53;100899.03;;;12.79;100.00
34931;BME280;21134;49.646;8.560;2023-10-09T03:34:21;100893.03;;;12.78;100.00
34931;BME280;21134;49.646;8.560;2023-10-09T03:36:49;100901.56;;;12.82;100.00
34931;BME280;21134;49.646;8.560;2023-10-09T03:39:24;100896.47;;;12.80;100.00
34931;BME280;21134;49.646;8.560;2023-10-09T03:41:59;100899.03;;;12.84;100.00
34931;BME280;21134;49.646;8.560;2023-10-09T03:44:30;100902.41;;;12.86;100.00
34931;BME280;21134;49.646;8.560;2023-10-09T03:47:00;100900.72;;;12.82;100.00
34931;BME280;21134;49.646;8.560;2023-10-09T03:49:27;100900.75;;;12.83;100.00
34931;BME280;21134;49.646;8.560;2023-10-09T03:51:55;100897.28;;;12.86;100.00
34931;BME280;21134;49.646;8.560;2023-10-09T03:54:21;100894.72;;;12.86;100.00
34931;BME280;21134;49.646;8.560;2023-10-09T03:56:49;100890.47;;;12.86;100.00
34931;BME280;21134;49.646;8.560;2023-10-09T03:59:16;100887.88;;;12.85;100.00
34931;BME280;21134;49.646;8.560;2023-10-09T04:01:42;100889.59;;;12.87;100.00
34931;BME280;21134;49.646;8.560;2023-10-09T04:04:10;100887.00;;;12.86;100.00
34931;BME280;21134;49.646;8.560;2023-10-09T04:06:39;100893.00;;;12.85;100.00
34931;BME280;21134;49.646;8.560;2023-10-09T04:09:07;100885.31;;;12.85;100.00
34931;BME280;21134;49.646;8.560;2023-10-09T04:11:53;100893.03;;;12.86;100.00
34931;BME280;21134;49.646;8.560;2023-10-09T04:14:39;100885.31;;;12.85;100.00
34931;BME280;21134;49.646;8.560;2023-10-09T04:17:15;100890.44;;;12.88;100.00
34931;BME280;21134;49.646;8.560;2023-10-09T04:19:57;100885.31;;;12.89;100.00
34931;BME280;21134;49.646;8.560;2023-10-09T04:22:38;100881.03;;;12.90;100.00
34931;BME280;21134;49.646;8.560;2023-10-09T04:25:15;100878.41;;;12.94;100.00
34931;BME280;21134;49.646;8.560;2023-10-09T04:27:50;100867.28;;;12.95;100.00
34931;BME280;21134;49.646;8.560;2023-10-09T04:30:18;100865.59;;;12.91;100.00
34931;BME280;21134;49.646;8.560;2023-10-09T04:32:45;100875.88;;;12.93;100.00
34931;BME280;21134;49.646;8.560;2023-10-09T04:35:13;100881.00;;;12.88;100.00
34931;BME280;21134;49.646;8.560;2023-10-09T04:37:49;100875.03;;;12.89;100.00
34931;BME280;21134;49.646;8.560;2023-10-09T04:40:28;100879.31;;;12.90;100.00
34931;BME280;21134;49.646;8.560;2023-10-09T04:43:16;100882.69;;;12.95;100.00
34931;BME280;21134;49.646;8.560;2023-10-09T04:45:45;100884.41;;;12.96;100.00
34931;BME280;21134;49.646;8.560;2023-10-09T04:48:26;100887.81;;;12.98;100.00
34931;BME280;21134;49.646;8.560;2023-10-09T04:51:04;100881.84;;;12.96;100.00
34931;BME280;21134;49.646;8.560;2023-10-09T04:53:47;100886.13;;;12.96;100.00
34931;BME280;21134;49.646;8.560;2023-10-09T04:56:25;100888.66;;;13.05;100.00
34931;BME280;21134;49.646;8.560;2023-10-09T04:58:57;100882.66;;;13.01;100.00
34931;BME280;21134;49.646;8.560;2023-10-09T05:01:29;100895.50;;;13.03;100.00
34931;BME280;21134;49.646;8.560;2023-10-09T05:04:07;100900.63;;;13.04;100.00
34931;BME280;21134;49.646;8.560;2023-10-09T05:06:52;100896.38;;;13.05;100.00
34931;BME280;21134;49.646;8.560;2023-10-09T05:09:21;100896.38;;;13.05;100.00
34931;BME280;21134;49.646;8.560;2023-10-09T05:11:48;100897.22;;;13.06;100.00
34931;BME280;21134;49.646;8.560;2023-10-09T05:14:20;100903.19;;;13.04;100.00
34931;BME280;21134;49.646;8.560;2023-10-09T05:17:03;100903.19;;;13.04;100.00
34931;BME280;21134;49.646;8.560;2023-10-09T05:19:31;100903.19;;;13.04;100.00
34931;BME280;21134;49.646;8.560;2023-10-09T05:22:09;100909.22;;;13.02;100.00
34931;BME280;21134;49.646;8.560;2023-10-09T05:24:42;100910.94;;;13.03;100.00
34931;BME280;21134;49.646;8.560;2023-10-09T05:27:12;100909.19;;;13.03;100.00
34931;BME280;21134;49.646;8.560;2023-10-09T05:29:44;100909.19;;;13.03;100.00
34931;BME280;21134;49.646;8.560;2023-10-09T05:32:24;100910.06;;;13.01;100.00
34931;BME280;21134;49.646;8.560;2023-10-09T05:34:55;100911.78;;;13.00;100.00
34931;BME280;21134;49.646;8.560;2023-10-09T05:37:40;100914.34;;;13.03;100.00
34931;BME280;21134;49.646;8.560;2023-10-09T05:40:09;100911.78;;;13.02;100.00
34931;BME280;21134;49.646;8.560;2023-10-09T05:42:48;100911.78;;;13.03;100.00
34931;BME280;21134;49.646;8.560;2023-10-09T05:45:25;100913.50;;;13.03;100.00
34931;BME280;21134;49.646;8.560;2023-10-09T05:48:24;100921.19;;;13.04;100.00
34931;BME280;21134;49.646;8.560;2023-10-09T05:51:08;100908.34;;;13.03;100.00
34931;BME280;21134;49.646;8.560;2023-10-09T05:53:46;100910.91;;;13.04;100.00
34931;BME280;21134;49.646;8.560;2023-10-09T05:56:29;100912.59;;;13.07;100.00
34931;BME280;21134;49.646;8.560;2023-10-09T05:59:09;100916.03;;;13.09;100.00
34931;BME280;21134;49.646;8.560;2023-10-09T06:01:53;100916.88;;;13.10;100.00
34931;BME280;21134;49.646;8.560;2023-10-09T06:04:37;100913.44;;;13.14;100.00
34931;BME280;21134;49.646;8.560;2023-10-09T06:07:19;100903.16;;;13.15;100.00
34931;BME280;21134;49.646;8.560;2023-10-09T06:09:50;100904.00;;;13.19;100.00
34931;BME280;21134;49.646;8.560;2023-10-09T06:12:18;100911.69;;;13.22;100.00
34931;BME280;21134;49.646;8.560;2023-10-09T06:15:12;100912.56;;;13.25;100.00
34931;BME280;21134;49.646;8.560;2023-10-09T06:18:16;100916.81;;;13.26;100.00
34931;BME280;21134;49.646;8.560;2023-10-09T06:20:59;100907.38;;;13.30;100.00
34931;BME280;21134;49.646;8.560;2023-10-09T06:23:48;100911.69;;;13.31;100.00
34931;BME280;21134;49.646;8.560;2023-10-09T06:26:35;100922.78;;;13.36;100.00
34931;BME280;21134;49.646;8.560;2023-10-09T06:29:01;100923.63;;;13.41;100.00
34931;BME280;21134;49.646;8.560;2023-10-09T06:31:42;100917.59;;;13.45;100.00
34931;BME280;21134;49.646;8.560;2023-10-09T06:34:23;100921.84;;;13.48;100.00
34931;BME280;21134;49.646;8.560;2023-10-09T06:36:58;100926.13;;;13.54;100.00
34931;BME280;21134;49.646;8.560;2023-10-09T06:39:34;100931.19;;;13.61;100.00
34931;BME280;21134;49.646;8.560;2023-10-09T06:42:18;100929.47;;;13.66;100.00
34931;BME280;21134;49.646;8.560;2023-10-09T06:45:00;100919.97;;;13.71;100.00
34931;BME280;21134;49.646;8.560;2023-10-09T06:47:32;100925.09;;;13.76;100.00
34931;BME280;21134;49.646;8.560;2023-10-09T06:50:07;100933.63;;;13.83;100.00
34931;BME280;21134;49.646;8.560;2023-10-09T06:52:51;100931.88;;;13.89;100.00
34931;BME280;21134;49.646;8.560;2023-10-09T06:55:23;100934.38;;;13.97;100.00
34931;BME280;21134;49.646;8.560;2023-10-09T06:58:02;100935.16;;;14.05;100.00
34931;BME280;21134;49.646;8.560;2023-10-09T07:00:38;100923.94;;;14.12;100.00
34931;BME280;21134;49.646;8.560;2023-10-09T07:03:20;100929.91;;;14.16;100.00
34931;BME280;21134;49.646;8.560;2023-10-09T07:06:02;100939.31;;;14.22;100.00
34931;BME280;21134;49.646;8.560;2023-10-09T07:08:30;100935.00;;;14.27;100.00
34931;BME280;21134;49.646;8.560;2023-10-09T07:11:02;100939.25;;;14.31;100.00
34931;BME280;21134;49.646;8.560;2023-10-09T07:13:46;100946.03;;;14.38;100.00
34931;BME280;21134;49.646;8.560;2023-10-09T07:16:20;100939.16;;;14.40;100.00
34931;BME280;21134;49.646;8.560;2023-10-09T07:18:50;100939.09;;;14.46;100.00
34931;BME280;21134;49.646;8.560;2023-10-09T07:21:20;100947.66;;;14.51;100.00
34931;BME280;21134;49.646;8.560;2023-10-09T07:23:54;100951.03;;;14.56;100.00
34931;BME280;21134;49.646;8.560;2023-10-09T07:26:22;100964.75;;;14.61;100.00
34931;BME280;21134;49.646;8.560;2023-10-09T07:29:03;100963.81;;;14.67;100.00
34931;BME280;21134;49.646;8.560;2023-10-09T07:31:41;100963.75;;;14.73;100.00
34931;BME280;21134;49.646;8.560;2023-10-09T07:34:12;100973.09;;;14.80;100.00
34931;BME280;21134;49.646;8.560;2023-10-09T07:36:57;100960.16;;;14.86;100.00
34931;BME280;21134;49.646;8.560;2023-10-09T07:39:30;100961.81;;;14.92;99.77
34931;BME280;21134;49.646;8.560;2023-10-09T07:42:00;100961.75;;;15.00;99.04
34931;BME280;21134;49.646;8.560;2023-10-09T07:44:40;100949.63;;;15.05;98.54
34931;BME280;21134;49.646;8.560;2023-10-09T07:47:11;100952.19;;;15.08;98.33
34931;BME280;21134;49.646;8.560;2023-10-09T07:49:46;100955.59;;;15.10;98.38
34931;BME280;21134;49.646;8.560;2023-10-09T07:52:19;100959.00;;;15.14;97.76
34931;BME280;21134;49.646;8.560;2023-10-09T07:54:50;100954.63;;;15.19;96.41
34931;BME280;21134;49.646;8.560;2023-10-09T07:57:20;100956.28;;;15.24;97.02
34931;BME280;21134;49.646;8.560;2023-10-09T07:59:51;100949.31;;;15.32;96.08
34931;BME280;21134;49.646;8.560;2023-10-09T08:02:29;100961.19;;;15.43;95.87
34931;BME280;21134;49.646;8.560;2023-10-09T08:05:01;100959.31;;;15.55;95.07
34931;BME280;21134;49.646;8.560;2023-10-09T08:07:32;100960.03;;;15.65;94.14
34931;BME280;21134;49.646;8.560;2023-10-09T08:10:03;100965.88;;;15.78;92.70
34931;BME280;21134;49.646;8.560;2023-10-09T08:12:47;100972.56;;;15.93;92.17
34931;BME280;21134;49.646;8.560;2023-10-09T08:15:46;100971.47;;;16.06;90.31
34931;BME280;21134;49.646;8.560;2023-10-09T08:18:16;100970.41;;;16.19;89.63
34931;BME280;21134;49.646;8.560;2023-10-09T08:20:54;100975.31;;;16.33;89.38
34931;BME280;21134;49.646;8.560;2023-10-09T08:23:39;100983.75;;;16.43;87.97
34931;BME280;21134;49.646;8.560;2023-10-09T08:26:15;100972.38;;;16.56;88.28
34931;BME280;21134;49.646;8.560;2023-10-09T08:28:53;100965.31;;;16.64;87.19
34931;BME280;21134;49.646;8.560;2023-10-09T08:31:40;100973.84;;;16.69;86.55
34931;BME280;21134;49.646;8.560;2023-10-09T08:34:10;100985.81;;;16.75;86.32
34931;BME280;21134;49.646;8.560;2023-10-09T08:36:51;100984.84;;;16.82;85.96
34931;BME280;21134;49.646;8.560;2023-10-09T08:39:20;100998.50;;;16.89;85.94
34931;BME280;21134;49.646;8.560;2023-10-09T08:41:52;100999.06;;;17.03;85.39
34931;BME280;21134;49.646;8.560;2023-10-09T08:44:20;101002.19;;;17.19;84.30
34931;BME280;21134;49.646;8.560;2023-10-09T08:46:50;100991.59;;;17.31;82.84
34931;BME280;21134;49.646;8.560;2023-10-09T08:49:17;100989.59;;;17.46;81.43
34931;BME280;21134;49.646;8.560;2023-10-09T08:51:44;100988.53;;;17.54;80.43
34931;BME280;21134;49.646;8.560;2023-10-09T08:54:14;100988.38;;;17.60;80.40
34931;BME280;21134;49.646;8.560;2023-10-09T08:56:41;101000.47;;;17.61;80.30
34931;BME280;21134;49.646;8.560;2023-10-09T08:59:15;100998.69;;;17.63;79.74
34931;BME280;21134;49.646;8.560;2023-10-09T09:01:43;100990.06;;;17.63;80.05
34931;BME280;21134;49.646;8.560;2023-10-09T09:04:10;100989.09;;;17.67;80.23
34931;BME280;21134;49.646;8.560;2023-10-09T09:06:37;100991.56;;;17.73;80.19
34931;BME280;21134;49.646;8.560;2023-10-09T09:09:10;100982.84;;;17.79;80.41
34931;BME280;21134;49.646;8.560;2023-10-09T09:11:41;100972.56;;;17.74;80.37
34931;BME280;21134;49.646;8.560;2023-10-09T09:14:14;100973.50;;;17.72;79.85
34931;BME280;21134;49.646;8.560;2023-10-09T09:16:45;100977.84;;;17.70;79.35
34931;BME280;21134;49.646;8.560;2023-10-09T09:19:14;100981.94;;;17.80;78.86
34931;BME280;21134;49.646;8.560;2023-10-09T09:21:49;100964.53;;;17.86;79.07
34931;BME280;21134;49.646;8.560;2023-10-09T09:24:20;100973.72;;;18.00;78.50
34931;BME280;21134;49.646;8.560;2023-10-09T09:26:54;100978.66;;;18.10;78.36
34931;BME280;21134;49.646;8.560;2023-10-09T09:29:38;100973.31;;;18.17;78.69
34931;BME280;21134;49.646;8.560;2023-10-09T09:32:06;100989.69;;;18.17;78.85
34931;BME280;21134;49.646;8.560;2023-10-09T09:34:43;101002.38;;;18.28;77.47
34931;BME280;21134;49.646;8.560;2023-10-09T09:37:18;100988.47;;;18.32;77.39
34931;BME280;21134;49.646;8.560;2023-10-09T09:39:46;100986.59;;;18.37;78.06
34931;BME280;21134;49.646;8.560;2023-10-09T09:42:15;100991.53;;;18.48;77.28
34931;BME280;21134;49.646;8.560;2023-10-09T09:44:44;100994.06;;;18.51;76.78
34931;BME280;21134;49.646;8.560;2023-10-09T09:47:12;101000.19;;;18.47;77.17
34931;BME280;21134;49.646;8.560;2023-10-09T09:49:48;100996.97;;;18.37;77.29
34931;BME280;21134;49.646;8.560;2023-10-09T09:52:18;100986.06;;;18.24;78.24
34931;BME280;21134;49.646;8.560;2023-10-09T09:54:44;100994.81;;;18.19;78.68
34931;BME280;21134;49.646;8.560;2023-10-09T09:57:14;100994.19;;;18.10;79.20
34931;BME280;21134;49.646;8.560;2023-10-09T09:59:51;101003.84;;;18.04;79.51
34931;BME280;21134;49.646;8.560;2023-10-09T10:02:24;101010.78;;;18.02;79.86
34931;BME280;21134;49.646;8.560;2023-10-09T10:04:56;101008.19;;;18.02;80.09
34931;BME280;21134;49.646;8.560;2023-10-09T10:07:26;101009.94;;;18.01;80.06
34931;BME280;21134;49.646;8.560;2023-10-09T10:09:55;101004.63;;;18.06;80.27
34931;BME280;21134;49.646;8.560;2023-10-09T10:12:51;101003.66;;;18.11;80.28
34931;BME280;21134;49.646;8.560;2023-10-09T10:15:57;101021.47;;;18.24;79.49
34931;BME280;21134;49.646;8.560;2023-10-09T10:18:23;101019.50;;;18.35;78.61
34931;BME280;21134;49.646;8.560;2023-10-09T10:21:10;101016.56;;;18.49;78.83
34931;BME280;21134;49.646;8.560;2023-10-09T10:23:41;101015.41;;;18.61;78.02
34931;BME280;21134;49.646;8.560;2023-10-09T10:26:17;101011.81;;;18.65;77.88
34931;BME280;21134;49.646;8.560;2023-10-09T10:29:16;101015.25;;;18.65;77.91
34931;BME280;21134;49.646;8.560;2023-10-09T10:31:54;101020.34;;;18.70;77.94
34931;BME280;21134;49.646;8.560;2023-10-09T10:34:21;101018.50;;;18.75;77.65
34931;BME280;21134;49.646;8.560;2023-10-09T10:36:49;101027.88;;;18.79;77.13
34931;BME280;21134;49.646;8.560;2023-10-09T10:39:18;101029.44;;;18.86;77.17
34931;BME280;21134;49.646;8.560;2023-10-09T10:41:55;101040.44;;;18.96;76.62
34931;BME280;21134;49.646;8.560;2023-10-09T10:44:28;101048.06;;;19.00;76.40
34931;BME280;21134;49.646;8.560;2023-10-09T10:47:02;101038.28;;;19.10;76.75
34931;BME280;21134;49.646;8.560;2023-10-09T10:49:30;101034.50;;;19.22;76.08
34931;BME280;21134;49.646;8.560;2023-10-09T10:52:03;101035.03;;;19.33;75.45
34931;BME280;21134;49.646;8.560;2023-10-09T10:54:44;101024.41;;;19.42;75.49
34931;BME280;21134;49.646;8.560;2023-10-09T10:57:35;101008.47;;;19.55;75.08
34931;BME280;21134;49.646;8.560;2023-10-09T11:00:20;100988.22;;;19.67;73.98
34931;BME280;21134;49.646;8.560;2023-10-09T11:03:04;100983.47;;;19.82;73.29
34931;BME280;21134;49.646;8.560;2023-10-09T11:05:42;100985.81;;;19.89;73.21
34931;BME280;21134;49.646;8.560;2023-10-09T11:08:16;100984.66;;;19.98;72.71
34931;BME280;21134;49.646;8.560;2023-10-09T11:10:47;100957.69;;;20.02;72.13
34931;BME280;21134;49.646;8.560;2023-10-09T11:13:23;100943.75;;;20.05;72.15
34931;BME280;21134;49.646;8.560;2023-10-09T11:15:59;100933.09;;;20.12;72.02
34931;BME280;21134;49.646;8.560;2023-10-09T11:18:41;100921.03;;;20.10;72.51
34931;BME280;21134;49.646;8.560;2023-10-09T11:21:13;100934.13;;;20.07;72.99
34931;BME280;21134;49.646;8.560;2023-10-09T11:23:57;100930.50;;;20.12;72.54
34931;BME280;21134;49.646;8.560;2023-10-09T11:26:44;100918.31;;;20.14;73.36
34931;BME280;21134;49.646;8.560;2023-10-09T11:29:19;100912.91;;;20.20;73.39
34931;BME280;21134;49.646;8.560;2023-10-09T11:31:59;100926.53;;;20.27;73.17
34931;BME280;21134;49.646;8.560;2023-10-09T11:34:25;100929.81;;;20.32;73.08
34931;BME280;21134;49.646;8.560;2023-10-09T11:37:01;100943.41;;;20.40;72.89
34931;BME280;21134;49.646;8.560;2023-10-09T11:39:29;100955.16;;;20.51;72.34
34931;BME280;21134;49.646;8.560;2023-10-09T11:42:05;100953.19;;;20.59;72.21
34931;BME280;21134;49.646;8.560;2023-10-09T11:44:38;100952.00;;;20.67;72.74
34931;BME280;21134;49.646;8.560;2023-10-09T11:47:12;100942.25;;;20.74;72.61
34931;BME280;21134;49.646;8.560;2023-10-09T11:49:50;100929.06;;;20.79;72.65
34931;BME280;21134;49.646;8.560;2023-10-09T11:52:54;100923.06;;;20.77;72.24
34931;BME280;21134;49.646;8.560;2023-10-09T11:55:33;100930.00;;;20.78;71.93
34931;BME280;21134;49.646;8.560;2023-10-09T11:58:00;100921.09;;;20.83;71.56
34931;BME280;21134;49.646;8.560;2023-10-09T12:00:27;100916.28;;;20.96;69.92
34931;BME280;21134;49.646;8.560;2023-10-09T12:02:56;100908.69;;;21.13;68.30
34931;BME280;21134;49.646;8.560;2023-10-09T12:05:30;100908.25;;;21.26;67.65
34931;BME280;21134;49.646;8.560;2023-10-09T12:07:57;100912.75;;;21.44;67.81
34931;BME280;21134;49.646;8.560;2023-10-09T12:10:26;100915.34;;;21.66;67.28
34931;BME280;21134;49.646;8.560;2023-10-09T12:12:55;100912.09;;;21.81;65.53
34931;BME280;21134;49.646;8.560;2023-10-09T12:15:23;100911.72;;;21.91;64.16
34931;BME280;21134;49.646;8.560;2023-10-09T12:17:50;100911.34;;;22.00;63.80
34931;BME280;21134;49.646;8.560;2023-10-09T12:20:19;100906.25;;;22.19;63.37
34931;BME280;21134;49.646;8.560;2023-10-09T12:22:57;100892.16;;;22.43;60.64
34931;BME280;21134;49.646;8.560;2023-10-09T12:25:24;100892.81;;;22.67;59.35
34931;BME280;21134;49.646;8.560;2023-10-09T12:27:50;100885.66;;;22.91;58.87
34931;BME280;21134;49.646;8.560;2023-10-09T12:30:19;100891.03;;;23.07;57.27
34931;BME280;21134;49.646;8.560;2023-10-09T12:32:52;100891.50;;;23.15;55.66
34931;BME280;21134;49.646;8.560;2023-10-09T12:35:21;100882.28;;;23.44;54.91
34931;BME280;21134;49.646;8.560;2023-10-09T12:37:48;100881.00;;;23.53;54.06
34931;BME280;21134;49.646;8.560;2023-10-09T12:40:15;100884.78;;;23.65;53.92
34931;BME280;21134;49.646;8.560;2023-10-09T12:42:49;100876.59;;;23.73;54.29
34931;BME280;21134;49.646;8.560;2023-10-09T12:45:16;100871.91;;;23.79;54.11
34931;BME280;21134;49.646;8.560;2023-10-09T12:47:45;100868.44;;;23.79;54.92
34931;BME280;21134;49.646;8.560;2023-10-09T12:50:13;100855.00;;;23.69;53.48
34931;BME280;21134;49.646;8.560;2023-10-09T12:52:41;100852.06;;;23.75;54.35
34931;BME280;21134;49.646;8.560;2023-10-09T12:55:08;100852.59;;;23.64;53.30
34931;BME280;21134;49.646;8.560;2023-10-09T12:57:44;100863.94;;;23.63;54.01
34931;BME280;21134;49.646;8.560;2023-10-09T13:00:13;100860.13;;;23.71;54.69
34931;BME280;21134;49.646;8.560;2023-10-09T13:02:50;100862.53;;;23.75;53.63
34931;BME280;21134;49.646;8.560;2023-10-09T13:05:17;100856.63;;;23.72;52.91
34931;BME280;21134;49.646;8.560;2023-10-09T13:07:53;100855.63;;;23.74;53.10
34931;BME280;21134;49.646;8.560;2023-10-09T13:10:21;100852.84;;;23.77;53.10
34931;BME280;21134;49.646;8.560;2023-10-09T13:12:49;100849.63;;;23.72;52.73
34931;BME280;21134;49.646;8.560;2023-10-09T13:15:20;100830.25;;;23.76;52.83
34931;BME280;21134;49.646;8.560;2023-10-09T13:17:47;100835.78;;;23.87;53.42
34931;BME280;21134;49.646;8.560;2023-10-09T13:20:13;100833.84;;;23.91;53.34